No particular awareness of the weather is required.    There are no Weather-warnings


Meteo18 Weather Cam more information Meteo18 Weather Cam


Thunder radar more information blitzortung!


Rain radar more information rain snow radar


Visit our other weather sites:

Template documentation
and downloads

And another site



Weather Underground History page Text

Daily Summary for May 11, 2017 Units:  English    Metric   Both
« Previous Day
Next Day »
Daily Weekly Monthly Yearly Custom
  High: Low: Average:
Temperature: TemperatureC °F 8.8 °F 12.4 °F
Dew Point: DewpointC °F 7.6 °F 10.8 °F
Humidity: Humidity % 73 % 90 %
Wind Speed: WindSpeedKMH mph 0.0 mph 1.7 mph
Wind Gust: WindSpeedGustKMH mph - -
Wind:- - SSE
Pressure: PressurehPa in 997.5 in -
Precipitation: 7.9 in    
Historical Graphs
 
 
Tabular Data for May 11, 2017
Time Temperature Dew Point Pressure Wind Wind Speed Wind Gust Humidity Rainfall Rate (Hourly)
TemperatureC °F DewpointC °F PressurehPa in Calm     Humidity % HourlyPrecipMM in
00:02 13.6 °F 11.6 °F 1002.6 in Calm     88 % 0.0 in
00:07 13.4 °F 11.5 °F 1002.6 in Calm     88 % 0.0 in
00:12 13.3 °F 11.4 °F 1002.6 in Calm     88 % 0.0 in
00:17 13.4 °F 11.5 °F 1002.6 in Calm   1.6 mph 88 % 0.0 in
00:22 13.4 °F 11.6 °F 1002.6 in Calm   1.6 mph 89 % 0.0 in
00:27 13.4 °F 11.5 °F 1002.6 in Calm   1.6 mph 88 % 0.0 in
00:32 13.2 °F 11.3 °F 1002.6 in Calm   1.6 mph 88 % 0.0 in
00:37 13.2 °F 11.4 °F 1002.6 in Calm   1.6 mph 89 % 0.0 in
00:42 13.2 °F 11.4 °F 1002.6 in Calm   1.6 mph 89 % 0.0 in
00:47 13.1 °F 11.3 °F 1002.6 in Calm   1.6 mph 89 % 0.0 in
00:52 13.1 °F 11.3 °F 1002.3 in Calm     89 % 0.0 in
00:57 13.1 °F 11.5 °F 1002.6 in Calm   1.6 mph 90 % 0.0 in
01:02 13.1 °F 11.3 °F 1002.3 in Calm   1.6 mph 89 % 0.0 in
01:12 12.9 °F 11.1 °F 1002.6 in Calm     89 % 0.0 in
01:17 13.0 °F 11.4 °F 1002.3 in Calm     90 % 0.0 in
01:22 13.1 °F 11.3 °F 1002.3 in Calm     89 % 0.0 in
01:27 12.9 °F 11.1 °F 1002.3 in Calm     89 % 0.0 in
01:32 12.9 °F 11.3 °F 1002.3 in Calm     90 % 0.0 in
01:42 12.8 °F 11.0 °F 1001.9 in Calm     89 % 0.0 in
01:47 12.7 °F 10.9 °F 1001.9 in Calm     89 % 0.0 in
01:52 12.5 °F 10.7 °F 1001.9 in Calm     89 % 0.0 in
01:57 12.4 °F 10.6 °F 1001.9 in Calm     89 % 0.0 in
02:02 12.3 °F 10.7 °F 1001.9 in Calm     90 % 0.0 in
02:12 12.4 °F 10.8 °F 1001.6 in Calm     90 % 0.0 in
02:17 12.4 °F 10.6 °F 1001.6 in Calm     89 % 0.0 in
02:22 12.3 °F 10.5 °F 1001.6 in Calm     89 % 0.0 in
02:27 12.1 °F 10.3 °F 1001.2 in Calm     89 % 0.0 in
02:32 11.9 °F 10.3 °F 1001.2 in Calm     90 % 0.0 in
02:37 11.9 °F 10.5 °F 1001.2 in Calm     91 % 0.0 in
02:42 11.9 °F 10.5 °F 1001.2 in Calm     91 % 0.0 in
02:47 12.0 °F 10.4 °F 1001.2 in Calm     90 % 0.0 in
02:52 11.9 °F 10.1 °F 1001.2 in Calm     89 % 0.0 in
02:57 11.8 °F 10.0 °F 1001.2 in Calm     89 % 0.0 in
03:02 11.6 °F 10.0 °F 1000.9 in Calm     90 % 0.0 in
03:12 11.6 °F 10.2 °F 1000.9 in Calm     91 % 0.0 in
03:17 11.6 °F 10.0 °F 1000.9 in Calm     90 % 0.0 in
03:22 11.5 °F 9.7 °F 1000.9 in Calm     89 % 0.0 in
03:27 11.3 °F 9.7 °F 1000.6 in Calm     90 % 0.0 in
03:32 11.2 °F 9.6 °F 1000.6 in Calm     90 % 0.0 in
03:37 11.2 °F 9.6 °F 1000.6 in Calm     90 % 0.0 in
03:42 11.2 °F 9.6 °F 1000.6 in Calm     90 % 0.0 in
03:47 11.0 °F 9.3 °F 1000.6 in Calm     89 % 0.0 in
03:52 10.9 °F 9.3 °F 1000.2 in Calm     90 % 0.0 in
03:57 10.9 °F 9.3 °F 1000.2 in Calm     90 % 0.0 in
04:02 10.7 °F 9.0 °F 1000.6 in Calm     89 % 0.0 in
04:12 10.4 °F 9.0 °F 1000.2 in Calm     91 % 0.0 in
04:17 10.7 °F 9.3 °F 1000.2 in Calm     91 % 0.0 in
04:22 10.7 °F 9.3 °F 999.9 in Calm     91 % 0.0 in
04:27 10.6 °F 8.9 °F 999.9 in Calm     89 % 0.0 in
04:32 10.3 °F 8.6 °F 1000.2 in Calm     89 % 0.0 in
04:42 10.2 °F 9.0 °F 999.9 in NNE 3.2 mph 3.2 mph 92 % 0.0 in
04:47 10.5 °F 9.1 °F 999.5 in NE 3.2 mph 3.2 mph 91 % 0.0 in
04:52 10.6 °F 9.0 °F 999.5 in NNE 3.2 mph 3.2 mph 90 % 0.0 in
04:57 10.4 °F 8.7 °F 999.5 in Calm   4.8 mph 89 % 0.0 in
05:02 10.3 °F 8.6 °F 999.5 in Calm   4.8 mph 89 % 0.0 in
05:12 10.2 °F 8.6 °F 999.5 in Calm   3.2 mph 90 % 0.0 in
05:17 10.0 °F 8.4 °F 999.5 in Calm   1.6 mph 90 % 0.0 in
05:22 9.9 °F 8.3 °F 999.5 in Calm   1.6 mph 90 % 0.0 in
05:32 9.8 °F 8.4 °F 999.5 in Calm   1.6 mph 91 % 0.0 in
05:37 9.7 °F 8.1 °F 999.5 in Calm   1.6 mph 90 % 0.0 in
05:42 9.5 °F 7.9 °F 999.5 in Calm   1.6 mph 90 % 0.0 in
05:47 9.4 °F 8.0 °F 999.2 in Calm     91 % 0.0 in
05:52 9.3 °F 7.9 °F 999.2 in Calm     91 % 0.0 in
05:57 9.2 °F 7.8 °F 999.5 in Calm     91 % 0.0 in
06:02 9.1 °F 7.9 °F 999.5 in Calm     92 % 0.0 in
06:07 9.1 °F 7.9 °F 999.2 in Calm     92 % 0.0 in
06:12 9.1 °F 7.9 °F 999.2 in Calm     92 % 0.0 in
06:17 9.1 °F 7.9 °F 999.2 in Calm     92 % 0.0 in
06:22 9.0 °F 7.8 °F 999.2 in Calm     92 % 0.0 in
06:27 8.9 °F 7.7 °F 999.2 in Calm     92 % 0.0 in
06:32 8.8 °F 7.7 °F 999.2 in Calm     93 % 0.0 in
06:42 8.8 °F 7.6 °F 998.9 in North 1.6 mph   92 % 0.0 in
06:47 8.9 °F 7.7 °F 998.9 in North 1.6 mph 1.6 mph 92 % 0.0 in
06:52 9.2 °F 8.0 °F 998.9 in North 1.6 mph 1.6 mph 92 % 0.0 in
06:57 9.2 °F 7.8 °F 998.9 in Calm   3.2 mph 91 % 0.0 in
07:02 9.2 °F 7.8 °F 998.9 in North 1.6 mph 3.2 mph 91 % 0.0 in
07:12 9.5 °F 8.1 °F 998.9 in Calm   1.6 mph 91 % 0.0 in
07:17 9.6 °F 8.2 °F 998.9 in Calm   1.6 mph 91 % 0.0 in
07:22 9.7 °F 8.1 °F 998.9 in Calm   1.6 mph 90 % 0.0 in
07:27 10.0 °F 8.3 °F 998.9 in Calm   1.6 mph 89 % 0.0 in
07:32 10.2 °F 8.3 °F 998.9 in Calm   1.6 mph 88 % 0.0 in
07:42 10.8 °F 8.9 °F 998.9 in Calm   1.6 mph 88 % 0.0 in
07:52 11.2 °F 8.8 °F 998.9 in Calm     85 % 0.0 in
07:57 11.2 °F 8.8 °F 998.5 in SE 1.6 mph 1.6 mph 85 % 0.0 in
08:02 11.2 °F 8.6 °F 998.9 in Calm   1.6 mph 84 % 0.0 in
08:07 11.1 °F 8.3 °F 998.5 in East 1.6 mph 3.2 mph 83 % 0.0 in
08:12 11.1 °F 8.5 °F 998.5 in Calm   3.2 mph 84 % 0.0 in
08:17 11.1 °F 8.5 °F 998.5 in Calm   4.8 mph 84 % 0.0 in
08:22 11.2 °F 8.6 °F 998.5 in Calm   4.8 mph 84 % 0.0 in
08:27 11.3 °F 8.7 °F 998.5 in Calm   1.6 mph 84 % 0.0 in
08:32 11.3 °F 8.5 °F 998.5 in Calm   1.6 mph 83 % 0.0 in
08:37 11.4 °F 8.4 °F 998.5 in Calm   1.6 mph 82 % 0.0 in
08:42 11.7 °F 8.7 °F 998.5 in Calm   1.6 mph 82 % 0.0 in
08:47 11.8 °F 8.8 °F 998.9 in Calm   1.6 mph 82 % 0.0 in
08:52 11.9 °F 8.7 °F 998.5 in Calm   1.6 mph 81 % 0.0 in
08:57 12.1 °F 8.9 °F 998.5 in Calm     81 % 0.0 in
09:02 12.2 °F 9.2 °F 998.5 in Calm     82 % 0.0 in
09:12 12.3 °F 9.1 °F 998.5 in East 1.6 mph   81 % 0.0 in
09:17 12.5 °F 9.3 °F 998.5 in Calm   4.8 mph 81 % 0.0 in
09:22 12.7 °F 9.5 °F 998.5 in Calm   4.8 mph 81 % 0.0 in
09:27 12.8 °F 9.2 °F 998.5 in Calm   1.6 mph 79 % 0.0 in
09:32 13.0 °F 9.3 °F 998.5 in Calm   1.6 mph 78 % 0.0 in
09:37 13.1 °F 9.2 °F 998.5 in SSW 1.6 mph 3.2 mph 77 % 0.0 in
09:42 13.2 °F 9.1 °F 998.5 in Calm   3.2 mph 76 % 0.0 in
09:47 13.3 °F 9.0 °F 998.5 in SE 1.6 mph 6.4 mph 75 % 0.0 in
09:52 13.4 °F 9.3 °F 998.5 in South 3.2 mph 6.4 mph 76 % 0.0 in
09:57 13.4 °F 9.3 °F 998.5 in Calm   4.8 mph 76 % 0.0 in
10:02 13.6 °F 9.3 °F 998.5 in Calm   4.8 mph 75 % 0.0 in
10:12 13.7 °F 9.1 °F 998.5 in Calm   6.4 mph 74 % 0.0 in
10:17 13.7 °F 8.9 °F 998.5 in South 1.6 mph 6.4 mph 73 % 0.0 in
10:22 13.8 °F 9.2 °F 998.5 in Calm   6.4 mph 74 % 0.0 in
10:27 13.8 °F 9.0 °F 998.5 in South 1.6 mph 8.0 mph 73 % 0.0 in
10:32 13.9 °F 9.3 °F 998.5 in SE 1.6 mph 8.0 mph 74 % 0.0 in
10:42 14.1 °F 9.5 °F 998.5 in SSW 3.2 mph 9.7 mph 74 % 0.0 in
10:52 14.2 °F 9.4 °F 998.9 in SSW 6.4 mph 9.7 mph 73 % 0.0 in
10:57 14.2 °F 9.6 °F 998.9 in SSE 3.2 mph 14.5 mph 74 % 0.0 in
11:02 14.1 °F 9.3 °F 998.9 in SSE 12.9 mph 14.5 mph 73 % 0.0 in
11:07 13.9 °F 9.7 °F 998.9 in SW 9.7 mph 22.5 mph 76 % 0.0 in
11:12 13.3 °F 9.9 °F 999.2 in SSW 16.1 mph 22.5 mph 80 % 0.0 in
11:17 12.7 °F 10.2 °F 999.2 in SW 9.7 mph 20.9 mph 85 % 0.5 in
11:22 12.3 °F 10.2 °F 999.5 in SSW 9.7 mph 20.9 mph 87 % 0.5 in
11:27 12.0 °F 10.2 °F 999.5 in SSW 11.3 mph 20.9 mph 89 % 1.3 in
11:32 11.8 °F 10.2 °F 999.5 in SSW 11.3 mph 17.7 mph 90 % 1.5 in
11:42 11.8 °F 10.5 °F 999.5 in SSW 4.8 mph 17.7 mph 92 % 2.0 in
11:47 11.9 °F 10.8 °F 999.5 in South 1.6 mph 12.9 mph 93 % 2.3 in
11:52 12.0 °F 10.9 °F 999.5 in Calm   8.0 mph 93 % 2.5 in
11:57 11.9 °F 10.8 °F 999.5 in SW 1.6 mph 8.0 mph 93 % 2.8 in
12:02 12.0 °F 10.9 °F 999.5 in South 4.8 mph 8.0 mph 93 % 3.0 in
12:07 11.9 °F 10.8 °F 999.5 in Calm   8.0 mph 93 % 3.0 in
12:12 12.1 °F 11.0 °F 999.5 in South 1.6 mph 6.4 mph 93 % 3.0 in
12:17 12.1 °F 11.0 °F 999.2 in Calm   6.4 mph 93 % 2.8 in
12:22 12.1 °F 11.0 °F 999.2 in Calm   6.4 mph 93 % 2.8 in
12:27 12.3 °F 11.2 °F 999.2 in Calm   3.2 mph 93 % 2.3 in
12:32 12.4 °F 11.3 °F 999.2 in Calm   3.2 mph 93 % 2.3 in
12:37 12.6 °F 11.3 °F 999.2 in Calm   3.2 mph 92 % 2.3 in
12:42 12.6 °F 11.3 °F 999.2 in Calm   3.2 mph 92 % 2.0 in
12:47 12.8 °F 11.5 °F 999.2 in Calm   3.2 mph 92 % 1.5 in
12:52 12.8 °F 11.5 °F 999.2 in Calm   4.8 mph 92 % 1.5 in
12:57 12.9 °F 11.6 °F 998.9 in SSW 3.2 mph 4.8 mph 92 % 1.3 in
13:02 12.9 °F 11.6 °F 998.9 in SSW 1.6 mph 6.4 mph 92 % 1.0 in
13:12 13.2 °F 11.9 °F 998.9 in Calm   8.0 mph 92 % 1.0 in
13:17 13.3 °F 11.9 °F 998.5 in SW 1.6 mph 11.3 mph 91 % 0.8 in
13:22 13.4 °F 11.8 °F 998.5 in SSW 6.4 mph 11.3 mph 90 % 0.5 in
13:27 13.4 °F 11.8 °F 998.5 in SSW 4.8 mph 11.3 mph 90 % 0.5 in
13:32 13.4 °F 11.8 °F 998.5 in SSE 4.8 mph 9.7 mph 90 % 0.5 in
13:42 13.4 °F 11.8 °F 998.5 in SE 4.8 mph 9.7 mph 90 % 0.5 in
13:47 13.4 °F 11.8 °F 998.5 in SSW 3.2 mph 11.3 mph 90 % 0.5 in
13:52 13.4 °F 11.8 °F 998.5 in SE 3.2 mph 11.3 mph 90 % 0.5 in
13:57 13.3 °F 11.7 °F 998.5 in East 3.2 mph 11.3 mph 90 % 0.5 in
14:02 13.2 °F 11.6 °F 998.5 in SE 6.4 mph 16.1 mph 90 % 0.5 in
14:07 13.3 °F 11.9 °F 998.5 in East 1.6 mph 16.1 mph 91 % 0.5 in
14:12 13.3 °F 11.9 °F 998.5 in SSE 4.8 mph 16.1 mph 91 % 0.5 in
14:17 13.3 °F 11.9 °F 998.2 in ESE 1.6 mph 9.7 mph 91 % 0.5 in
14:22 13.4 °F 12.1 °F 998.2 in South 6.4 mph 9.7 mph 92 % 0.5 in
14:27 13.4 °F 12.0 °F 998.2 in ESE 3.2 mph 9.7 mph 91 % 0.5 in
14:32 13.5 °F 12.1 °F 998.2 in SSE 1.6 mph 9.7 mph 91 % 0.5 in
14:37 13.6 °F 12.2 °F 998.2 in SW 3.2 mph 9.7 mph 91 % 0.5 in
14:42 13.6 °F 12.2 °F 998.2 in SSW 4.8 mph 8.0 mph 91 % 0.5 in
14:52 13.5 °F 12.2 °F 998.2 in Calm   9.7 mph 92 % 0.5 in
14:57 13.6 °F 12.3 °F 998.2 in SSE 3.2 mph 9.7 mph 92 % 0.8 in
15:02 13.5 °F 12.2 °F 998.2 in SE 3.2 mph 9.7 mph 92 % 0.5 in
15:07 13.5 °F 12.2 °F 998.2 in South 3.2 mph 9.7 mph 92 % 0.5 in
15:12 13.4 °F 12.1 °F 998.2 in SE 4.8 mph 9.7 mph 92 % 0.5 in
15:17 13.5 °F 12.2 °F 998.2 in SE 9.7 mph 12.9 mph 92 % 0.5 in
15:22 13.6 °F 12.5 °F 998.2 in ESE 3.2 mph 12.9 mph 93 % 0.5 in
15:27 13.6 °F 12.5 °F 998.2 in SSE 3.2 mph 12.9 mph 93 % 0.5 in
15:32 13.6 °F 12.3 °F 998.2 in South 3.2 mph 12.9 mph 92 % 0.5 in
15:37 13.5 °F 12.2 °F 997.9 in SE 6.4 mph 11.3 mph 92 % 0.5 in
15:42 13.3 °F 12.0 °F 997.9 in ESE 1.6 mph 11.3 mph 92 % 0.8 in
15:47 13.4 °F 12.3 °F 997.9 in Calm   11.3 mph 93 % 0.5 in
15:52 13.4 °F 12.3 °F 997.9 in SE 6.4 mph 9.7 mph 93 % 0.5 in
15:57 13.4 °F 12.3 °F 997.9 in SE 4.8 mph 8.0 mph 93 % 0.8 in
16:02 13.4 °F 12.3 °F 997.9 in ESE 3.2 mph 8.0 mph 93 % 0.8 in
16:12 13.6 °F 12.7 °F 997.9 in South 6.4 mph 6.4 mph 94 % 1.0 in
16:17 13.6 °F 12.7 °F 997.9 in ESE 3.2 mph 6.4 mph 94 % 1.3 in
16:22 13.7 °F 12.8 °F 997.9 in SSW 1.6 mph 6.4 mph 94 % 1.3 in
16:27 13.7 °F 12.8 °F 997.9 in SW 3.2 mph 8.0 mph 94 % 1.3 in
16:32 13.8 °F 12.9 °F 997.9 in Calm   8.0 mph 94 % 1.3 in
16:42 14.0 °F 12.9 °F 997.5 in South 1.6 mph 8.0 mph 93 % 0.8 in
16:47 13.9 °F 12.8 °F 997.5 in SSE 1.6 mph 9.7 mph 93 % 0.8 in
16:52 13.9 °F 12.8 °F 997.9 in SSW 3.2 mph 9.7 mph 93 % 0.5 in
16:57 14.1 °F 13.0 °F 997.9 in SE 3.2 mph 14.5 mph 93 % 0.5 in
17:02 14.1 °F 13.0 °F 997.9 in ESE 1.6 mph 14.5 mph 93 % 0.3 in
17:07 14.1 °F 13.0 °F 997.5 in East 1.6 mph 9.7 mph 93 % 0.3 in
17:12 14.1 °F 13.0 °F 997.5 in SE 1.6 mph 9.7 mph 93 % 0.3 in
17:17 14.1 °F 13.0 °F 997.5 in ESE 1.6 mph 8.0 mph 93 % 0.3 in
17:22 14.1 °F 13.0 °F 997.5 in SSE 3.2 mph 9.7 mph 93 % 0.3 in
17:27 13.9 °F 12.8 °F 997.5 in South 1.6 mph 9.7 mph 93 % 0.5 in
17:32 13.9 °F 12.8 °F 997.9 in SSW 4.8 mph 12.9 mph 93 % 0.5 in
17:37 13.9 °F 12.8 °F 997.9 in SSE 1.6 mph 12.9 mph 93 % 0.5 in
17:42 13.8 °F 12.7 °F 997.9 in ESE 3.2 mph 12.9 mph 93 % 0.5 in
17:47 13.8 °F 12.7 °F 997.9 in SSE 3.2 mph 12.9 mph 93 % 0.5 in
17:52 13.8 °F 12.9 °F 997.9 in SSE 1.6 mph 12.9 mph 94 % 0.5 in
17:57 14.0 °F 13.0 °F 997.5 in SSE 1.6 mph 11.3 mph 94 % 0.5 in
18:02 14.1 °F 13.1 °F 997.9 in South 4.8 mph 8.0 mph 94 % 0.5 in
18:07 14.3 °F 13.3 °F 997.5 in SSW 6.4 mph 8.0 mph 94 % 0.3 in
18:12 14.4 °F 13.3 °F 997.5 in SSW 1.6 mph 8.0 mph 93 % 0.3 in
18:22 14.4 °F 13.3 °F 997.5 in South 4.8 mph 11.3 mph 93 % 0.0 in
18:32 14.6 °F 13.5 °F 997.5 in SW 4.8 mph 9.7 mph 93 % 0.0 in
18:42 14.8 °F 13.5 °F 997.5 in SSE 9.7 mph 12.9 mph 92 % 0.0 in
18:47 14.8 °F 13.5 °F 997.5 in WSW 3.2 mph 12.9 mph 92 % 0.0 in
18:52 14.8 °F 13.5 °F 997.5 in SSE 4.8 mph 11.3 mph 92 % 0.0 in
18:57 14.8 °F 13.5 °F 997.5 in SE 1.6 mph 11.3 mph 92 % 0.0 in
19:02 14.8 °F 13.5 °F 997.5 in Calm   11.3 mph 92 % 0.0 in
19:12 14.6 °F 13.3 °F 997.5 in Calm   11.3 mph 92 % 0.0 in
19:17 14.5 °F 13.2 °F 997.5 in Calm   11.3 mph 92 % 0.0 in
19:22 14.4 °F 13.1 °F 997.5 in SSE 3.2 mph 9.7 mph 92 % 0.0 in
19:27 14.3 °F 13.2 °F 997.5 in ESE 6.4 mph 11.3 mph 93 % 0.0 in
19:32 14.2 °F 13.1 °F 997.5 in East 4.8 mph 11.3 mph 93 % 0.0 in
19:42 14.1 °F 13.0 °F 997.5 in ENE 4.8 mph 11.3 mph 93 % 0.0 in
19:47 13.9 °F 12.8 °F 997.5 in South 1.6 mph 11.3 mph 93 % 0.0 in
19:52 13.8 °F 12.7 °F 997.5 in SSE 1.6 mph 11.3 mph 93 % 0.0 in
19:57 13.7 °F 12.6 °F 997.5 in SE 6.4 mph 11.3 mph 93 % 0.0 in
20:02 13.6 °F 12.5 °F 997.9 in SE 3.2 mph 11.3 mph 93 % 0.0 in
20:12 13.4 °F 12.3 °F 997.9 in ESE 1.6 mph 9.7 mph 93 % 0.0 in
20:17 13.4 °F 12.5 °F 997.9 in SE 3.2 mph 9.7 mph 94 % 0.0 in
20:27 13.3 °F 12.4 °F 997.9 in SSW 3.2 mph 9.7 mph 94 % 0.0 in
20:32 13.2 °F 12.3 °F 998.2 in SSE 4.8 mph 8.0 mph 94 % 0.0 in
20:37 13.2 °F 12.3 °F 998.2 in SSW 1.6 mph 8.0 mph 94 % 0.0 in
20:42 13.2 °F 12.3 °F 998.2 in Calm   8.0 mph 94 % 0.0 in
20:52 13.1 °F 12.2 °F 998.5 in South 4.8 mph 4.8 mph 94 % 0.3 in
20:57 13.1 °F 12.2 °F 998.5 in SSE 1.6 mph 6.4 mph 94 % 0.3 in
21:02 13.1 °F 12.2 °F 998.5 in Calm   6.4 mph 94 % 0.3 in
21:12 13.0 °F 12.2 °F 998.5 in SE 1.6 mph 4.8 mph 95 % 0.3 in
21:17 12.9 °F 12.1 °F 998.5 in SSE 1.6 mph 3.2 mph 95 % 0.3 in
21:22 12.9 °F 12.1 °F 998.5 in Calm   6.4 mph 95 % 0.3 in
21:32 12.8 °F 12.0 °F 998.5 in Calm   6.4 mph 95 % 0.3 in
21:42 12.8 °F 12.0 °F 998.9 in SSE 3.2 mph 3.2 mph 95 % 0.3 in
21:47 12.8 °F 12.0 °F 998.9 in Calm   3.2 mph 95 % 0.0 in
21:52 12.7 °F 11.9 °F 999.2 in Calm   3.2 mph 95 % 0.0 in
21:57 12.7 °F 11.9 °F 999.2 in Calm   4.8 mph 95 % 0.0 in
22:02 12.6 °F 11.8 °F 999.2 in SSE 3.2 mph 4.8 mph 95 % 0.0 in
22:07 12.6 °F 11.8 °F 999.5 in Calm   3.2 mph 95 % 0.0 in
22:12 12.6 °F 11.8 °F 999.5 in Calm   3.2 mph 95 % 0.0 in
22:17 12.6 °F 11.8 °F 999.5 in Calm   3.2 mph 95 % 0.0 in
22:22 12.6 °F 11.8 °F 999.5 in Calm   4.8 mph 95 % 0.0 in
22:32 12.5 °F 11.9 °F 999.5 in Calm   6.4 mph 96 % 0.0 in
22:42 12.4 °F 11.8 °F 999.5 in SSW 1.6 mph 4.8 mph 96 % 0.0 in
22:47 12.4 °F 11.8 °F 999.5 in SSW 1.6 mph 4.8 mph 96 % 0.0 in
22:52 12.4 °F 11.8 °F 999.5 in Calm   4.8 mph 96 % 0.3 in
22:57 12.4 °F 11.8 °F 999.5 in SW 3.2 mph 4.8 mph 96 % 0.3 in
23:02 12.4 °F 11.8 °F 999.5 in Calm   4.8 mph 96 % 0.3 in
23:07 12.4 °F 11.8 °F 999.5 in SSW 1.6 mph 3.2 mph 96 % 0.3 in
23:12 12.4 °F 11.8 °F 999.5 in Calm   4.8 mph 96 % 0.3 in
23:32 12.4 °F 11.8 °F 999.9 in SW 1.6 mph 3.2 mph 96 % 0.3 in
23:42 12.4 °F 11.8 °F 999.9 in Calm   6.4 mph 96 % 1.0 in
23:47 12.4 °F 11.8 °F 999.9 in SSE 1.6 mph 6.4 mph 96 % 0.8 in
23:57 12.4 °F 11.8 °F 999.9 in SSW 1.6 mph 4.8 mph 96 % 0.8 in
Meteo18
Compliments of Weather Underground - 4 mb

Script developed by  Jim McMurry - jmcmurry@mwt.net Adapted for the template by  Wim van der Kuil - Leuven-Template.eu

You find our weather info also at:

European Weather Network

Weather Underground

Equipment we use:

Weather-station
Davis Vue

Weather-program
Meteobridge

Weather-server
Raspberry PI 2 B+

Provider
1 and 1

Davis Vue

Meteobridge

Raspberry PI 2 B+

1 and 1